createdAt,value
2023-02-16T00:00:52.412Z,218.27
2023-02-16T00:03:21.888Z,292.67
2023-02-16T00:05:49.534Z,317.88
2023-02-16T00:08:21.262Z,276.33
2023-02-16T00:11:08.024Z,244.45
2023-02-16T00:13:52.900Z,296.05
2023-02-16T00:16:24.856Z,293.00
2023-02-16T00:18:52.732Z,236.65
2023-02-16T00:21:19.985Z,270.00
2023-02-16T00:23:48.270Z,324.38
2023-02-16T00:26:23.484Z,330.80
2023-02-16T00:28:53.132Z,253.25
2023-02-16T00:31:27.165Z,259.08
2023-02-16T00:33:54.097Z,305.10
2023-02-16T00:36:21.570Z,230.07
2023-02-16T00:38:48.320Z,354.17
2023-02-16T00:41:40.551Z,201.20
2023-02-16T00:44:16.113Z,252.43
2023-02-16T00:46:46.503Z,211.25
2023-02-16T00:49:20.786Z,214.57
2023-02-16T00:51:50.551Z,224.15
2023-02-16T00:54:19.786Z,276.13
2023-02-16T00:56:47.095Z,198.95
2023-02-16T00:59:18.602Z,294.33
2023-02-16T01:01:45.752Z,216.35
2023-02-16T01:04:19.576Z,285.60
2023-02-16T01:07:04.822Z,226.40
2023-02-16T01:09:50.435Z,215.93
2023-02-16T01:12:21.351Z,205.85
2023-02-16T01:14:52.207Z,205.82
2023-02-16T01:17:18.947Z,189.88
2023-02-16T01:19:47.762Z,213.05
2023-02-16T01:22:14.458Z,265.30
2023-02-16T01:24:41.170Z,162.77
2023-02-16T01:27:12.394Z,171.20
2023-02-16T01:29:39.117Z,181.63
2023-02-16T01:32:05.958Z,170.40
2023-02-16T01:34:32.679Z,216.30
2023-02-16T01:36:59.338Z,163.80
2023-02-16T01:39:28.878Z,207.40
2023-02-16T01:42:03.353Z,209.60
2023-02-16T01:44:42.030Z,176.93
2023-02-16T01:47:33.358Z,214.80
2023-02-16T01:50:11.968Z,149.40
2023-02-16T01:52:44.274Z,188.82
2023-02-16T01:55:22.536Z,169.35
2023-02-16T01:58:01.205Z,177.05
2023-02-16T02:00:30.022Z,198.55
2023-02-16T02:03:19.788Z,129.95
2023-02-16T02:05:50.790Z,210.25
2023-02-16T02:08:27.095Z,159.15
2023-02-16T02:11:18.426Z,135.80
2023-02-16T02:13:52.963Z,206.95
2023-02-16T02:16:24.874Z,228.13
2023-02-16T02:18:55.057Z,173.07
2023-02-16T02:22:11.181Z,176.82
2023-02-16T02:24:56.637Z,215.90
2023-02-16T02:27:39.169Z,214.63
2023-02-16T02:30:41.646Z,202.57
2023-02-16T02:33:37.941Z,207.40
2023-02-16T02:36:22.426Z,166.18
2023-02-16T02:39:01.029Z,182.15
2023-02-16T02:42:17.080Z,193.30
2023-02-16T02:45:11.221Z,170.75
2023-02-16T02:47:43.658Z,169.13
2023-02-16T02:51:06.885Z,234.15
2023-02-16T02:54:13.367Z,195.23
2023-02-16T02:57:03.377Z,206.68
2023-02-16T03:00:12.090Z,143.40
2023-02-16T03:02:41.758Z,142.68
2023-02-16T03:05:11.696Z,176.73
2023-02-16T03:07:50.896Z,160.10
2023-02-16T03:10:47.003Z,174.73
2023-02-16T03:13:22.343Z,137.60
2023-02-16T03:15:55.759Z,165.38
2023-02-16T03:18:44.629Z,132.40
2023-02-16T03:21:33.287Z,156.13
2023-02-16T03:24:21.759Z,163.82
2023-02-16T03:27:09.213Z,209.35
2023-02-16T03:29:37.837Z,165.15
2023-02-16T03:32:10.337Z,154.50
2023-02-16T03:34:37.780Z,160.32
2023-02-16T03:37:05.495Z,201.85
2023-02-16T03:39:55.005Z,144.05
2023-02-16T03:42:22.978Z,141.25
2023-02-16T03:44:50.451Z,166.52
2023-02-16T03:47:17.078Z,148.02
2023-02-16T03:49:43.919Z,150.48
2023-02-16T03:52:13.129Z,129.88
2023-02-16T03:54:39.847Z,158.25
2023-02-16T03:57:08.868Z,206.63
2023-02-16T03:59:35.507Z,126.38
2023-02-16T04:02:04.685Z,157.93
2023-02-16T04:04:31.472Z,147.60
2023-02-16T04:07:00.343Z,137.20
2023-02-16T04:09:31.651Z,145.98
2023-02-16T04:12:19.602Z,172.88
2023-02-16T04:14:48.635Z,122.10
2023-02-16T04:17:17.576Z,140.77
2023-02-16T04:19:46.477Z,131.43
2023-02-16T04:22:13.140Z,157.65
2023-02-16T04:24:39.771Z,145.88
2023-02-16T04:27:09.072Z,135.82
2023-02-16T04:29:37.956Z,151.52
2023-02-16T04:32:05.147Z,155.63
2023-02-16T04:34:34.239Z,145.45
2023-02-16T04:37:02.244Z,132.65
2023-02-16T04:39:28.981Z,160.07
2023-02-16T04:41:55.602Z,137.00
2023-02-16T04:44:22.304Z,151.98
2023-02-16T04:46:51.222Z,148.77
2023-02-16T04:49:17.965Z,160.70
2023-02-16T04:51:46.895Z,161.98
2023-02-16T04:54:15.706Z,133.05
2023-02-16T04:56:46.768Z,157.18
2023-02-16T04:59:15.262Z,135.18
2023-02-16T05:01:43.042Z,148.23
2023-02-16T05:04:12.415Z,176.95
2023-02-16T05:06:39.246Z,129.05
2023-02-16T05:09:11.462Z,125.20
2023-02-16T05:11:57.063Z,132.95
2023-02-16T05:14:41.656Z,154.38
2023-02-16T05:17:20.397Z,131.15
2023-02-16T05:19:53.289Z,129.10
2023-02-16T05:22:22.794Z,147.68
2023-02-16T05:24:49.853Z,204.13
2023-02-16T05:27:27.684Z,179.90
2023-02-16T05:29:56.677Z,204.57
2023-02-16T05:32:26.138Z,218.95
2023-02-16T05:34:52.934Z,165.07
2023-02-16T05:37:19.740Z,189.95
2023-02-16T05:39:48.575Z,164.57
2023-02-16T05:42:15.243Z,147.88
2023-02-16T05:44:46.689Z,152.52
2023-02-16T05:47:13.595Z,144.18
2023-02-16T05:49:40.370Z,129.05
2023-02-16T05:52:09.134Z,190.27
2023-02-16T05:54:38.394Z,174.60
2023-02-16T05:57:05.094Z,184.57
2023-02-16T05:59:31.807Z,196.32
2023-02-16T06:02:00.610Z,137.65
2023-02-16T06:04:29.939Z,135.30
2023-02-16T06:06:56.560Z,163.95
2023-02-16T06:09:23.183Z,188.48
2023-02-16T06:11:50.084Z,139.15
2023-02-16T06:14:19.411Z,134.73
2023-02-16T06:16:51.409Z,156.45
2023-02-16T06:19:20.962Z,148.57
2023-02-16T06:21:48.346Z,135.85
2023-02-16T06:24:15.830Z,121.28
2023-02-16T06:26:42.651Z,124.25
2023-02-16T06:29:11.802Z,120.00
2023-02-16T06:31:38.626Z,117.78
2023-02-16T06:34:05.877Z,114.97
2023-02-16T06:36:32.710Z,111.88
2023-02-16T06:38:59.492Z,114.45
2023-02-16T06:41:33.588Z,111.65
2023-02-16T06:44:02.249Z,110.85
2023-02-16T06:46:31.502Z,112.78
2023-02-16T06:48:58.667Z,104.28
2023-02-16T06:51:28.208Z,101.97
2023-02-16T06:53:54.982Z,100.55
2023-02-16T06:56:21.955Z,107.07
2023-02-16T06:58:48.862Z,87.90
2023-02-16T07:01:16.670Z,87.22
2023-02-16T07:03:43.686Z,85.93
2023-02-16T07:06:10.394Z,90.10
2023-02-16T07:08:39.277Z,86.47
2023-02-16T07:11:06.333Z,87.60
2023-02-16T07:13:36.447Z,82.95
2023-02-16T07:16:07.272Z,76.18
2023-02-16T07:18:36.602Z,79.65
2023-02-16T07:21:03.857Z,80.45
2023-02-16T07:23:30.758Z,77.55
2023-02-16T07:25:57.441Z,76.40
2023-02-16T07:28:24.468Z,77.03
2023-02-16T07:30:53.321Z,74.93
2023-02-16T07:33:21.060Z,72.63
2023-02-16T07:35:50.345Z,76.50
2023-02-16T07:38:19.323Z,70.18
2023-02-16T07:40:48.497Z,65.70
2023-02-16T07:43:18.431Z,60.55
2023-02-16T07:45:47.443Z,62.15
2023-02-16T07:48:14.122Z,57.53
2023-02-16T07:50:40.919Z,59.13
2023-02-16T07:53:11.186Z,60.30
2023-02-16T07:55:43.867Z,57.60
2023-02-16T07:58:27.070Z,58.63
2023-02-16T08:00:56.045Z,53.30
2023-02-16T08:03:25.626Z,60.05
2023-02-16T08:05:52.425Z,51.03
2023-02-16T08:08:19.199Z,45.15
2023-02-16T08:10:48.411Z,48.00
2023-02-16T08:13:15.119Z,47.92
2023-02-16T08:15:45.230Z,41.15
2023-02-16T08:18:12.069Z,43.97
2023-02-16T08:21:01.042Z,43.30
2023-02-16T08:23:28.021Z,40.95
2023-02-16T08:25:58.967Z,44.28
2023-02-16T08:28:28.622Z,43.38
2023-02-16T08:31:04.095Z,40.53
2023-02-16T08:33:33.083Z,37.65
2023-02-16T08:36:00.101Z,36.80
2023-02-16T08:38:26.771Z,38.00
2023-02-16T08:40:53.491Z,31.10
2023-02-16T08:43:20.151Z,37.17
2023-02-16T08:45:49.876Z,31.13
2023-02-16T08:48:17.811Z,30.70
2023-02-16T08:50:57.725Z,35.75
2023-02-16T08:53:27.874Z,32.53
2023-02-16T08:55:56.369Z,30.27
2023-02-16T08:58:24.453Z,31.63
2023-02-16T09:00:51.320Z,29.52
2023-02-16T09:03:21.232Z,30.42
2023-02-16T09:05:55.607Z,31.75
2023-02-16T09:08:22.308Z,28.17
2023-02-16T09:10:49.057Z,31.67
2023-02-16T09:13:16.213Z,30.45
2023-02-16T09:15:44.269Z,29.83
2023-02-16T09:18:15.072Z,32.33
2023-02-16T09:20:45.619Z,29.88
2023-02-16T09:23:19.004Z,28.20
2023-02-16T09:25:45.694Z,28.23
2023-02-16T09:28:15.896Z,28.17
2023-02-16T09:30:42.538Z,28.70
2023-02-16T09:33:11.364Z,28.38
2023-02-16T09:35:41.247Z,27.85
2023-02-16T09:38:08.600Z,28.95
2023-02-16T09:40:37.776Z,29.35
2023-02-16T09:43:29.126Z,29.35
2023-02-16T09:45:58.748Z,25.55
2023-02-16T09:48:47.221Z,27.73
2023-02-16T09:51:23.513Z,26.23
2023-02-16T09:54:02.116Z,27.73
2023-02-16T09:56:42.280Z,23.77
2023-02-16T09:59:16.027Z,25.92
2023-02-16T10:01:52.676Z,26.13
2023-02-16T10:04:35.319Z,26.77
2023-02-16T10:07:31.686Z,26.67
2023-02-16T10:10:01.071Z,22.45
2023-02-16T10:12:37.235Z,20.42
2023-02-16T10:15:14.035Z,22.15
2023-02-16T10:17:50.243Z,23.40
2023-02-16T10:20:23.632Z,25.35
2023-02-16T10:23:06.819Z,20.02
2023-02-16T10:26:04.704Z,22.97
2023-02-16T10:28:50.266Z,21.10
2023-02-16T10:31:22.238Z,18.35
2023-02-16T10:34:16.263Z,35.08
2023-02-16T10:36:51.804Z,20.38
2023-02-16T10:39:36.719Z,21.38
2023-02-16T10:42:29.788Z,15.82
2023-02-16T10:45:05.857Z,21.02
2023-02-16T10:47:39.965Z,20.98
2023-02-16T10:50:15.587Z,19.67
2023-02-16T10:52:46.161Z,18.85
2023-02-16T10:55:15.253Z,21.92
2023-02-16T10:57:42.695Z,22.08
2023-02-16T11:00:16.486Z,22.25
2023-02-16T11:05:34.546Z,22.40
2023-02-16T11:08:01.954Z,20.13
2023-02-16T11:10:51.712Z,17.13
2023-02-16T11:13:35.888Z,21.23
2023-02-16T11:19:21.887Z,18.70
2023-02-16T11:21:55.840Z,17.35
2023-02-16T11:24:37.308Z,20.65
2023-02-16T11:27:03.935Z,18.50
2023-02-16T11:29:31.541Z,17.73
2023-02-16T11:31:59.265Z,22.27
2023-02-16T11:34:31.429Z,17.83
2023-02-16T11:37:06.134Z,18.05
2023-02-16T11:39:41.133Z,22.58
2023-02-16T11:42:31.377Z,18.38
2023-02-16T11:45:00.586Z,19.92
2023-02-16T11:47:39.553Z,16.08
2023-02-16T11:50:25.700Z,19.90
2023-02-16T11:52:57.628Z,21.88
2023-02-16T11:55:36.006Z,20.80
2023-02-16T11:58:21.467Z,22.88
2023-02-16T12:01:19.675Z,18.83
2023-02-16T12:03:50.327Z,23.80
2023-02-16T12:06:20.678Z,19.40
2023-02-16T12:09:07.617Z,18.27
2023-02-16T12:11:45.110Z,26.17
2023-02-16T12:14:29.134Z,24.00
2023-02-16T12:17:33.939Z,22.30
2023-02-16T12:22:49.334Z,21.30
2023-02-16T12:25:30.976Z,21.95
2023-02-16T12:28:09.462Z,20.70
2023-02-16T12:30:45.145Z,24.33
2023-02-16T12:33:38.891Z,19.73
2023-02-16T12:36:21.682Z,20.38
2023-02-16T12:39:24.292Z,22.73
2023-02-16T12:41:53.776Z,18.90
2023-02-16T12:44:35.867Z,18.67
2023-02-16T12:47:12.882Z,21.55
2023-02-16T12:49:48.629Z,21.60
2023-02-16T12:52:48.670Z,20.40
2023-02-16T12:55:40.648Z,19.90
2023-02-16T12:58:25.174Z,21.83
2023-02-16T13:00:58.830Z,20.83
2023-02-16T13:03:50.149Z,21.90
2023-02-16T13:06:26.413Z,21.27
2023-02-16T13:09:41.500Z,20.08
2023-02-16T13:12:31.756Z,17.88
2023-02-16T13:15:21.020Z,17.23
2023-02-16T13:17:49.720Z,20.73
2023-02-16T13:20:19.744Z,18.13
2023-02-16T13:23:20.261Z,18.45
2023-02-16T13:26:12.218Z,16.73
2023-02-16T13:29:03.382Z,18.60
2023-02-16T13:31:56.901Z,20.75
2023-02-16T13:35:07.116Z,20.90
2023-02-16T13:37:52.714Z,24.40
2023-02-16T13:40:39.839Z,24.90
2023-02-16T13:43:26.404Z,17.08
2023-02-16T13:45:56.191Z,18.95
2023-02-16T13:48:27.151Z,19.65
2023-02-16T13:51:00.377Z,22.20
2023-02-16T13:53:34.831Z,20.38
2023-02-16T13:56:32.005Z,17.45
2023-02-16T13:59:19.771Z,17.83
2023-02-16T14:01:48.735Z,18.17
2023-02-16T14:04:38.705Z,19.48
2023-02-16T14:07:07.212Z,19.75
2023-02-16T14:09:46.660Z,16.15
2023-02-16T14:12:24.287Z,17.48
2023-02-16T14:14:56.552Z,15.77
2023-02-16T14:17:34.917Z,16.73
2023-02-16T14:20:16.514Z,22.40
2023-02-16T14:22:50.630Z,19.58
2023-02-16T14:25:22.794Z,21.60
2023-02-16T14:28:13.995Z,21.30
2023-02-16T14:30:57.722Z,19.58
2023-02-16T14:33:38.808Z,17.33
2023-02-16T14:36:21.684Z,18.27
2023-02-16T14:38:53.821Z,23.08
2023-02-16T14:41:23.615Z,19.73
2023-02-16T14:44:05.975Z,19.25
2023-02-16T14:46:41.829Z,22.15
2023-02-16T14:49:17.108Z,18.00
2023-02-16T14:52:11.099Z,20.90
2023-02-16T14:54:59.451Z,21.90
2023-02-16T14:58:05.156Z,19.15
2023-02-16T15:00:52.107Z,20.10
2023-02-16T15:03:26.449Z,23.60
2023-02-16T15:06:02.940Z,20.13
2023-02-16T15:08:36.350Z,21.10
2023-02-16T15:11:25.795Z,22.45
2023-02-16T15:13:54.953Z,23.52
2023-02-16T15:16:23.178Z,20.33
2023-02-16T15:18:54.914Z,21.65
2023-02-16T15:21:28.365Z,19.67
2023-02-16T15:23:57.827Z,18.08
2023-02-16T15:26:30.817Z,16.92
2023-02-16T15:29:03.458Z,20.50
2023-02-16T15:31:36.072Z,20.77
2023-02-16T15:34:12.737Z,22.58
2023-02-16T15:36:43.343Z,21.70
2023-02-16T15:39:37.905Z,22.30
2023-02-16T15:42:23.651Z,22.80
2023-02-16T15:44:50.618Z,21.48
2023-02-16T15:47:24.247Z,21.95
2023-02-16T15:49:52.224Z,20.90
2023-02-16T15:52:37.811Z,25.38
2023-02-16T15:55:09.018Z,21.63
2023-02-16T15:57:38.266Z,21.20
2023-02-16T16:00:19.314Z,21.08
2023-02-16T16:02:48.951Z,20.45
2023-02-16T16:05:36.147Z,20.83
2023-02-16T16:08:04.426Z,21.48
2023-02-16T16:10:31.994Z,20.00
2023-02-16T16:13:06.729Z,20.08
2023-02-16T16:15:43.200Z,18.52
2023-02-16T16:18:37.363Z,19.67
2023-02-16T16:21:13.350Z,18.85
2023-02-16T16:23:40.359Z,16.65
2023-02-16T16:26:21.009Z,21.25
2023-02-16T16:28:48.175Z,18.05
2023-02-16T16:31:23.625Z,17.90
2023-02-16T16:34:09.231Z,16.60
2023-02-16T16:36:55.883Z,15.48
2023-02-16T16:39:28.941Z,19.10
2023-02-16T16:42:17.649Z,17.35
2023-02-16T16:44:59.733Z,15.93
2023-02-16T16:47:29.098Z,16.83
2023-02-16T16:50:19.508Z,16.50
2023-02-16T16:52:48.945Z,15.75
2023-02-16T16:55:21.669Z,15.57
2023-02-16T16:57:50.689Z,12.68
2023-02-16T17:00:23.571Z,18.75
2023-02-16T17:02:50.384Z,18.13
2023-02-16T17:05:17.515Z,22.50
2023-02-16T17:07:44.445Z,15.57
2023-02-16T17:10:11.182Z,13.77
2023-02-16T17:12:37.865Z,18.27
2023-02-16T17:15:07.760Z,21.70
2023-02-16T17:17:38.413Z,18.17
2023-02-16T17:20:14.210Z,15.60
2023-02-16T17:22:40.899Z,18.10
2023-02-16T17:25:07.705Z,21.73
2023-02-16T17:27:37.427Z,15.60
2023-02-16T17:30:05.206Z,17.20
2023-02-16T17:32:31.943Z,14.23
2023-02-16T17:34:58.634Z,17.05
2023-02-16T17:37:25.494Z,16.83
2023-02-16T17:39:54.357Z,18.50
2023-02-16T17:42:21.057Z,17.92
2023-02-16T17:44:47.728Z,19.83
2023-02-16T17:47:16.598Z,18.30
2023-02-16T17:49:43.330Z,17.98
2023-02-16T17:52:13.324Z,16.63
2023-02-16T17:54:40.099Z,18.38
2023-02-16T17:57:07.026Z,17.50
2023-02-16T17:59:34.290Z,18.38
2023-02-16T18:02:01.305Z,20.05
2023-02-16T18:04:31.168Z,15.43
2023-02-16T18:06:57.876Z,17.70
2023-02-16T18:09:24.701Z,19.63
2023-02-16T18:11:51.823Z,21.40
2023-02-16T18:14:18.509Z,17.00
2023-02-16T18:16:45.208Z,16.52
2023-02-16T18:19:15.080Z,17.85
2023-02-16T18:21:44.611Z,18.77
2023-02-16T18:24:11.392Z,19.83
2023-02-16T18:26:38.046Z,20.27
2023-02-16T18:29:05.953Z,23.30
2023-02-16T18:31:32.741Z,15.27
2023-02-16T18:34:00.054Z,21.77
2023-02-16T18:36:26.958Z,18.08
2023-02-16T18:38:53.706Z,15.73
2023-02-16T18:41:22.660Z,12.60
2023-02-16T18:43:49.474Z,16.25
2023-02-16T18:46:16.329Z,18.85
2023-02-16T18:48:45.577Z,15.13
2023-02-16T18:51:16.478Z,19.63
2023-02-16T18:53:43.787Z,15.65
2023-02-16T18:56:13.521Z,19.70
2023-02-16T18:58:43.321Z,14.70
2023-02-16T19:01:28.519Z,14.18
2023-02-16T19:03:55.616Z,19.52
2023-02-16T19:06:22.751Z,16.05
2023-02-16T19:08:51.147Z,14.32
2023-02-16T19:11:24.044Z,15.00
2023-02-16T19:13:50.995Z,14.75
2023-02-16T19:16:18.248Z,14.15
2023-02-16T19:18:45.260Z,18.10
2023-02-16T19:21:14.501Z,15.20
2023-02-16T19:23:41.785Z,14.48
2023-02-16T19:26:11.173Z,12.70
2023-02-16T19:28:39.863Z,16.33
2023-02-16T19:31:20.197Z,19.35
2023-02-16T19:33:47.090Z,17.88
2023-02-16T19:36:15.204Z,15.27
2023-02-16T19:38:42.668Z,15.80
2023-02-16T19:41:33.927Z,11.73
2023-02-16T19:44:00.658Z,14.63
2023-02-16T19:46:30.374Z,16.00
2023-02-16T19:48:58.461Z,13.75
2023-02-16T19:51:25.979Z,12.50
2023-02-16T19:53:57.417Z,16.67
2023-02-16T19:56:26.377Z,16.60
2023-02-16T19:58:53.607Z,15.45
2023-02-16T20:01:23.099Z,15.23
2023-02-16T20:03:52.800Z,20.75
2023-02-16T20:06:25.476Z,18.42
2023-02-16T20:08:54.114Z,20.10
2023-02-16T20:11:23.457Z,18.73
2023-02-16T20:13:50.208Z,16.73
2023-02-16T20:16:18.183Z,17.70
2023-02-16T20:18:45.062Z,16.23
2023-02-16T20:21:13.202Z,16.63
2023-02-16T20:23:45.001Z,16.65
2023-02-16T20:26:18.729Z,15.43
2023-02-16T20:28:48.863Z,14.45
2023-02-16T20:31:24.638Z,19.80
2023-02-16T20:33:52.343Z,17.10
2023-02-16T20:36:21.856Z,19.65
2023-02-16T20:38:50.193Z,17.23
2023-02-16T20:41:17.954Z,20.85
2023-02-16T20:43:44.910Z,18.60
2023-02-16T20:46:13.801Z,14.55
2023-02-16T20:48:40.956Z,14.95
2023-02-16T20:51:08.741Z,14.73
2023-02-16T20:53:36.198Z,28.35
2023-02-16T20:56:17.015Z,14.45
2023-02-16T20:58:46.024Z,17.88
2023-02-16T21:01:21.796Z,14.25
2023-02-16T21:03:52.070Z,12.57
2023-02-16T21:06:19.624Z,16.95
2023-02-16T21:08:46.603Z,14.32
2023-02-16T21:11:13.519Z,12.45
2023-02-16T21:13:40.602Z,14.15
2023-02-16T21:16:08.554Z,15.15
2023-02-16T21:18:40.789Z,16.25
2023-02-16T21:21:09.324Z,13.45
2023-02-16T21:23:38.476Z,14.82
2023-02-16T21:26:06.460Z,13.25
2023-02-16T21:28:35.887Z,14.35
2023-02-16T21:31:09.707Z,13.48
2023-02-16T21:33:39.351Z,12.45
2023-02-16T21:36:11.135Z,16.33
2023-02-16T21:38:39.508Z,15.82
2023-02-16T21:41:28.738Z,13.55
2023-02-16T21:44:04.533Z,16.38
2023-02-16T21:46:34.524Z,15.43
2023-02-16T21:49:01.661Z,12.63
2023-02-16T21:51:33.720Z,15.10
2023-02-16T21:54:02.986Z,12.82
2023-02-16T21:56:37.524Z,14.55
2023-02-16T21:59:06.092Z,16.98
2023-02-16T22:01:42.551Z,19.73
2023-02-16T22:04:12.405Z,12.07
2023-02-16T22:06:41.775Z,15.93
2023-02-16T22:09:11.127Z,15.50
2023-02-16T22:11:38.298Z,12.82
2023-02-16T22:14:05.289Z,11.15
2023-02-16T22:16:36.517Z,12.98
2023-02-16T22:19:10.522Z,15.80
2023-02-16T22:21:39.053Z,14.73
2023-02-16T22:24:10.854Z,13.73
2023-02-16T22:26:37.498Z,13.52
2023-02-16T22:29:08.426Z,13.95
2023-02-16T22:31:38.294Z,11.55
2023-02-16T22:34:11.910Z,14.48
2023-02-16T22:36:38.733Z,15.80
2023-02-16T22:39:08.076Z,15.02
2023-02-16T22:41:37.306Z,12.98
2023-02-16T22:44:06.203Z,11.88
2023-02-16T22:46:33.405Z,19.30
2023-02-16T22:49:02.668Z,11.73
2023-02-16T22:51:30.732Z,11.70
2023-02-16T22:53:58.987Z,11.65
2023-02-16T22:56:26.866Z,16.83
2023-02-16T22:58:57.393Z,11.73
2023-02-16T23:01:26.316Z,10.88
2023-02-16T23:03:58.403Z,12.73
2023-02-16T23:06:34.722Z,12.60
2023-02-16T23:09:05.191Z,12.88
2023-02-16T23:11:33.432Z,13.40
2023-02-16T23:14:02.592Z,13.90
2023-02-16T23:16:31.399Z,9.18
2023-02-16T23:18:59.257Z,12.07
2023-02-16T23:21:32.955Z,10.45
2023-02-16T23:24:00.460Z,12.57
2023-02-16T23:26:30.348Z,11.80
2023-02-16T23:29:01.811Z,19.13
2023-02-16T23:31:35.748Z,11.20
2023-02-16T23:34:04.056Z,11.27
2023-02-16T23:36:32.485Z,14.60
2023-02-16T23:39:04.804Z,8.90
2023-02-16T23:41:36.128Z,12.70
2023-02-16T23:44:03.243Z,11.25
2023-02-16T23:46:31.078Z,14.98
2023-02-16T23:48:57.794Z,13.77
2023-02-16T23:51:26.876Z,10.15
2023-02-16T23:53:54.240Z,18.88
2023-02-16T23:56:23.067Z,11.10
2023-02-16T23:58:52.475Z,13.68
